Time;durP1;ratioP1;P1;durP2;ratioP2;P2;SDS_P1;SDS_P2;PMS_P1;PMS_P2;Temp;Humidity;BMP_temperature;BMP_pressure;BME280_temperature;BME280_humidity;BME280_pressure;Samples;Min_cycle;Max_cycle;Signal;HPM_P1;HPM_P2
2023/05/04 00:01:00;;;;;;;27.05;17.95;;;;;;;9.81;90.18;96815.50;5089611;28;20055;-73
2023/05/04 00:03:26;;;;;;;24.83;17.38;;;;;;;9.83;90.24;96807.88;5087777;27;20045;-73
2023/05/04 00:05:54;;;;;;;25.80;17.10;;;;;;;9.82;90.58;96800.81;5089033;28;20055;-73
2023/05/04 00:08:20;;;;;;;24.90;17.73;;;;;;;9.80;90.51;96805.75;5089147;28;20047;-73
2023/05/04 00:10:47;;;;;;;23.48;16.50;;;;;;;9.77;90.32;96806.38;5087225;27;20048;-73
2023/05/04 00:13:13;;;;;;;26.67;18.20;;;;;;;9.70;89.86;96797.78;5087171;28;20048;-74
2023/05/04 00:15:40;;;;;;;27.85;18.65;;;;;;;9.60;89.62;96799.56;5084806;28;20056;-73
2023/05/04 00:18:07;;;;;;;29.52;20.15;;;;;;;9.49;89.89;96800.06;5087383;28;20052;-73
2023/05/04 00:20:33;;;;;;;27.88;19.38;;;;;;;9.47;89.50;96792.22;5089320;28;20123;-73
2023/05/04 00:23:01;;;;;;;30.83;18.85;;;;;;;9.47;89.93;96794.94;5089245;28;20423;-73
2023/05/04 00:25:28;;;;;;;31.67;20.50;;;;;;;9.40;89.87;96789.91;5091414;28;20036;-73
2023/05/04 00:27:54;;;;;;;30.10;20.15;;;;;;;9.43;89.71;96793.13;5093058;28;20044;-72
2023/05/04 00:30:20;;;;;;;30.90;20.25;;;;;;;9.38;89.86;96792.09;5092694;28;20048;-74
2023/05/04 00:32:47;;;;;;;28.08;19.92;;;;;;;9.35;89.87;96791.91;5092781;28;20434;-73
2023/05/04 00:35:13;;;;;;;33.30;21.17;;;;;;;9.29;90.44;96787.66;5090335;28;20056;-73
2023/05/04 00:37:42;;;;;;;30.33;20.85;;;;;;;9.28;90.70;96791.47;5092203;28;20044;-73
2023/05/04 00:40:11;;;;;;;27.75;19.90;;;;;;;9.19;91.44;96787.81;5092616;28;20055;-73
2023/05/04 00:42:38;;;;;;;31.35;20.30;;;;;;;9.10;91.68;96793.16;5092773;28;20132;-73
2023/05/04 00:45:05;;;;;;;31.63;21.55;;;;;;;9.04;91.59;96787.00;5092193;28;20056;-73
2023/05/04 00:47:32;;;;;;;30.90;19.75;;;;;;;9.05;92.03;96788.59;5091452;28;20055;-73
2023/05/04 00:49:59;;;;;;;29.30;20.50;;;;;;;9.07;91.67;96788.31;5092855;28;20044;-73
2023/05/04 00:52:25;;;;;;;34.08;20.70;;;;;;;8.96;91.84;96779.53;5091967;28;20050;-73
2023/05/04 00:54:54;;;;;;;27.33;19.10;;;;;;;9.02;91.61;96780.25;5092797;28;20051;-73
2023/05/04 00:57:21;;;;;;;24.38;17.70;;;;;;;8.97;91.82;96783.84;5092245;28;20040;-73
2023/05/04 00:59:48;;;;;;;28.75;19.80;;;;;;;8.95;91.78;96782.53;5091882;28;20048;-73
2023/05/04 01:02:14;;;;;;;28.25;18.63;;;;;;;8.87;91.03;96782.13;5091721;28;20071;-73
2023/05/04 01:04:41;;;;;;;26.98;17.77;;;;;;;8.86;91.21;96779.69;5092730;28;20051;-72
2023/05/04 01:07:19;;;;;;;28.48;19.33;;;;;;;8.80;91.40;96776.25;5091889;28;20048;-73
2023/05/04 01:09:53;;;;;;;28.85;19.67;;;;;;;8.81;91.25;96779.75;5091553;28;20566;-73
2023/05/04 01:12:34;;;;;;;25.27;17.65;;;;;;;8.82;91.22;96776.78;5091696;28;20415;-73
2023/05/04 01:15:02;;;;;;;30.92;19.02;;;;;;;8.76;91.21;96769.78;5092183;28;20036;-73
2023/05/04 01:17:29;;;;;;;26.45;17.48;;;;;;;8.78;90.98;96778.47;5091936;28;20040;-73
2023/05/04 01:19:56;;;;;;;26.25;17.48;;;;;;;8.79;90.60;96781.97;5092360;28;20439;-73
2023/05/04 01:22:24;;;;;;;25.40;17.48;;;;;;;8.80;90.52;96778.16;5089723;28;20051;-73
2023/05/04 01:24:50;;;;;;;29.55;18.17;;;;;;;8.78;90.29;96777.66;5091934;28;20130;-73
2023/05/04 01:27:24;;;;;;;23.70;16.88;;;;;;;8.84;89.62;96787.34;5091309;28;20105;-73
2023/05/04 01:29:58;;;;;;;27.30;17.75;;;;;;;8.85;89.08;96789.75;5091176;28;20156;-73
2023/05/04 01:32:28;;;;;;;24.48;15.98;;;;;;;8.91;88.84;96793.19;5091599;28;20051;-73
2023/05/04 01:34:55;;;;;;;24.25;16.73;;;;;;;8.83;88.88;96786.53;5090459;28;20499;-73
2023/05/04 01:37:21;;;;;;;26.05;16.70;;;;;;;8.87;88.66;96789.44;5090845;28;20123;-72
2023/05/04 01:39:49;;;;;;;24.08;16.75;;;;;;;8.90;88.49;96791.56;5090672;28;20052;-73
2023/05/04 01:42:16;;;;;;;23.58;15.00;;;;;;;8.94;88.10;96787.16;5091150;28;20047;-73
2023/05/04 01:44:42;;;;;;;22.33;15.88;;;;;;;8.88;87.77;96788.34;5091808;28;20399;-72
2023/05/04 01:47:09;;;;;;;24.02;15.63;;;;;;;8.88;87.31;96788.34;5089356;28;20548;-74
2023/05/04 01:49:35;;;;;;;22.13;14.80;;;;;;;8.82;88.03;96786.81;5091813;28;20403;-73
2023/05/04 01:52:02;;;;;;;24.30;15.23;;;;;;;8.87;87.44;96784.00;5091156;28;20439;-75
2023/05/04 01:54:28;;;;;;;23.23;15.05;;;;;;;8.91;87.65;96787.75;5091376;27;20491;-73
2023/05/04 01:56:56;;;;;;;21.20;13.38;;;;;;;8.89;86.96;96781.81;5091495;28;20453;-74
2023/05/04 01:59:22;;;;;;;21.35;13.80;;;;;;;8.90;86.18;96775.28;5090418;28;20403;-74
2023/05/04 02:01:49;;;;;;;23.50;14.88;;;;;;;8.78;86.27;96778.47;5091146;28;20075;-73
2023/05/04 02:04:16;;;;;;;22.58;13.48;;;;;;;8.80;86.17;96775.44;5090808;28;20052;-74
2023/05/04 02:06:42;;;;;;;23.17;13.70;;;;;;;8.81;86.13;96777.03;5091299;28;20048;-74
2023/05/04 02:09:09;;;;;;;21.73;14.43;;;;;;;8.80;86.30;96778.16;5088857;28;20044;-74
2023/05/04 02:11:35;;;;;;;27.13;14.80;;;;;;;8.70;86.23;96781.03;5091215;28;20495;-74
2023/05/04 02:14:03;;;;;;;21.42;13.35;;;;;;;8.61;85.89;96770.84;5090626;28;20075;-75
2023/05/04 02:16:29;;;;;;;19.95;13.10;;;;;;;8.52;85.56;96769.91;5084213;28;20040;-74
2023/05/04 02:18:56;;;;;;;20.10;13.50;;;;;;;8.56;86.01;96776.34;5091361;28;20054;-73
2023/05/04 02:21:22;;;;;;;22.65;13.98;;;;;;;8.53;85.53;96771.50;5089437;28;20044;-74
2023/05/04 02:23:49;;;;;;;22.33;14.02;;;;;;;8.52;85.74;96769.91;5091125;28;20499;-74
2023/05/04 02:26:15;;;;;;;20.23;13.10;;;;;;;8.60;85.46;96782.00;5090107;28;20044;-73
2023/05/04 02:28:42;;;;;;;20.58;13.50;;;;;;;8.52;85.92;96778.03;5091852;28;20044;-73
2023/05/04 02:31:10;;;;;;;18.52;12.50;;;;;;;8.60;85.38;96782.00;5095683;28;20044;-75
2023/05/04 02:33:36;;;;;;;20.42;12.63;;;;;;;8.51;85.22;96778.31;5086239;28;20055;-74
2023/05/04 02:36:03;;;;;;;18.63;11.80;;;;;;;8.58;85.08;96782.28;5092576;28;20044;-74
2023/05/04 02:38:30;;;;;;;22.42;13.05;;;;;;;8.62;84.81;96779.81;5091609;28;20495;-74
2023/05/04 02:40:57;;;;;;;20.15;12.85;;;;;;;8.60;84.58;96782.00;5090752;28;20546;-73
2023/05/04 02:43:23;;;;;;;19.45;11.88;;;;;;;8.63;84.62;96776.78;5093625;28;20047;-74
2023/05/04 02:45:50;;;;;;;19.80;11.73;;;;;;;8.59;84.89;96783.91;5090413;28;20051;-74
2023/05/04 02:48:18;;;;;;;18.20;11.73;;;;;;;8.57;84.75;96783.41;5095447;28;20051;-74
2023/05/04 02:50:45;;;;;;;17.48;12.05;;;;;;;8.57;84.84;96777.97;5096897;28;20040;-74
2023/05/04 02:53:11;;;;;;;19.52;11.68;;;;;;;8.60;84.88;96774.66;5096749;28;20052;-74
2023/05/04 02:55:38;;;;;;;17.70;11.88;;;;;;;8.61;85.25;96778.16;5096976;28;20051;-75
2023/05/04 02:58:04;;;;;;;20.10;11.98;;;;;;;8.61;85.27;96779.00;5097935;27;20047;-74
2023/05/04 03:00:31;;;;;;;17.08;11.85;;;;;;;8.59;84.96;96781.19;5096044;27;20044;-74
2023/05/04 03:02:57;;;;;;;19.63;12.23;;;;;;;8.59;85.13;96780.38;5096798;28;20055;-74
2023/05/04 03:05:25;;;;;;;16.52;11.30;;;;;;;8.61;86.06;96784.44;5090071;28;20036;-74
2023/05/04 03:07:52;;;;;;;16.83;11.85;;;;;;;8.61;86.18;96780.88;5091809;27;20055;-74
2023/05/04 03:10:18;;;;;;;19.33;12.65;;;;;;;8.60;86.38;96784.69;5092257;28;20048;-74
2023/05/04 03:12:45;;;;;;;15.70;10.82;;;;;;;8.58;86.25;96779.56;5091907;28;20040;-74
2023/05/04 03:15:11;;;;;;;17.27;11.23;;;;;;;8.56;85.69;96781.78;5090409;28;20411;-75
2023/05/04 03:17:38;;;;;;;18.15;11.68;;;;;;;8.54;85.68;96783.97;5089665;28;21421;-72
2023/05/04 03:20:05;;;;;;;18.75;10.80;;;;;;;8.50;85.65;96780.22;5089131;27;20537;-72
2023/05/04 03:22:33;;;;;;;17.48;11.45;;;;;;;8.48;85.92;96774.28;5089893;28;20124;-73
2023/05/04 03:24:59;;;;;;;18.27;11.77;;;;;;;8.42;85.61;96780.09;5089782;28;20059;-72
2023/05/04 03:27:26;;;;;;;20.10;12.80;;;;;;;8.36;85.62;96776.66;5088935;28;20040;-72
2023/05/04 03:29:52;;;;;;;17.92;11.60;;;;;;;8.33;85.73;96777.19;5089865;27;20052;-72
2023/05/04 03:32:19;;;;;;;17.33;11.88;;;;;;;8.30;85.45;96783.19;5087791;27;20589;-73
2023/05/04 03:34:45;;;;;;;18.52;11.63;;;;;;;8.26;85.29;96776.75;5089835;28;20139;-73
2023/05/04 03:37:12;;;;;;;16.15;11.15;;;;;;;8.25;86.02;96775.16;5088758;27;20036;-72
2023/05/04 03:39:40;;;;;;;19.25;11.70;;;;;;;8.24;86.95;96776.22;5089204;27;20048;-73
2023/05/04 03:42:06;;;;;;;19.92;13.05;;;;;;;8.22;87.81;96773.03;5088403;28;20051;-72
2023/05/04 03:44:33;;;;;;;20.73;12.93;;;;;;;8.18;88.03;96780.13;5089756;28;20146;-72
2023/05/04 03:46:59;;;;;;;18.35;12.55;;;;;;;8.16;88.19;96776.91;5089850;28;20048;-72
2023/05/04 03:49:26;;;;;;;17.77;12.57;;;;;;;8.14;87.90;96779.09;5088844;28;20052;-72
2023/05/04 03:51:52;;;;;;;18.48;13.10;;;;;;;8.11;88.49;96770.44;5089652;28;20066;-72
2023/05/04 03:54:19;;;;;;;21.38;14.25;;;;;;;8.10;88.75;96784.31;5088204;27;20044;-72
2023/05/04 03:56:46;;;;;;;17.77;12.32;;;;;;;8.10;88.88;96778.88;5089627;28;20040;-73
2023/05/04 03:59:13;;;;;;;18.85;12.40;;;;;;;8.06;88.96;96778.66;5090633;28;20117;-73
2023/05/04 04:01:39;;;;;;;25.85;14.57;;;;;;;8.03;88.67;96783.84;5092478;28;20048;-72
2023/05/04 04:04:06;;;;;;;19.38;13.43;;;;;;;8.01;88.72;96773.28;5092469;27;20044;-72
2023/05/04 04:06:32;;;;;;;20.85;13.20;;;;;;;7.96;88.70;96767.13;5084679;28;20048;-72
2023/05/04 04:08:59;;;;;;;20.40;14.00;;;;;;;7.89;88.58;96770.19;5093496;28;20044;-72
2023/05/04 04:11:26;;;;;;;21.55;13.75;;;;;;;7.87;88.56;96764.25;5093073;28;20044;-72
2023/05/04 04:13:54;;;;;;;18.92;12.32;;;;;;;7.85;88.11;96767.25;5093412;28;20105;-72
2023/05/04 04:16:20;;;;;;;18.55;12.35;;;;;;;7.82;88.17;96767.00;5092878;28;20051;-72
2023/05/04 04:18:47;;;;;;;21.70;11.77;;;;;;;7.83;87.82;96765.94;5091648;27;20059;-72
2023/05/04 04:21:13;;;;;;;20.50;12.68;;;;;;;7.77;87.34;96769.78;5091750;28;20048;-73
2023/05/04 04:23:40;;;;;;;19.13;12.23;;;;;;;7.61;86.66;96762.94;5092911;27;20040;-72
2023/05/04 04:26:06;;;;;;;17.48;11.32;;;;;;;7.57;86.11;96763.53;5092784;28;20514;-72
2023/05/04 04:28:33;;;;;;;19.98;10.85;;;;;;;7.65;86.04;96761.25;5085291;28;20047;-72
2023/05/04 04:31:02;;;;;;;20.02;11.93;;;;;;;7.51;86.30;96767.38;5091213;27;20051;-73
2023/05/04 04:33:28;;;;;;;21.50;11.55;;;;;;;7.50;86.47;96771.16;5092594;28;20058;-72
2023/05/04 04:35:55;;;;;;;17.77;11.48;;;;;;;7.50;86.19;96760.34;5093046;28;20044;-73
2023/05/04 04:38:22;;;;;;;20.85;12.00;;;;;;;7.58;86.53;96767.84;5092118;27;20587;-73
2023/05/04 04:40:48;;;;;;;19.23;11.98;;;;;;;7.62;86.61;96761.81;5093090;28;20120;-72
2023/05/04 04:43:15;;;;;;;21.92;12.75;;;;;;;7.69;86.55;96759.59;5091706;27;20543;-72
2023/05/04 04:45:41;;;;;;;19.05;12.60;;;;;;;7.69;86.53;96762.31;5092530;28;20040;-75
2023/05/04 04:48:10;;;;;;;26.58;14.20;;;;;;;7.71;87.09;96762.81;5092408;28;20048;-73
2023/05/04 04:50:38;;;;;;;19.67;12.90;;;;;;;7.71;87.36;96770.94;5092124;27;20051;-72
2023/05/04 04:53:04;;;;;;;21.38;13.02;;;;;;;7.68;87.11;96766.13;5092156;28;20044;-72
2023/05/04 04:55:31;;;;;;;22.85;14.27;;;;;;;7.68;86.84;96774.25;5091338;28;20044;-73
2023/05/04 04:57:57;;;;;;;20.67;13.60;;;;;;;7.75;87.04;96778.22;5092520;28;20464;-74
2023/05/04 05:00:25;;;;;;;21.17;13.93;;;;;;;7.87;86.66;96785.13;5092322;28;20040;-72
2023/05/04 05:02:51;;;;;;;23.05;13.88;;;;;;;7.81;86.61;96776.25;5092715;28;20081;-72
2023/05/04 05:05:19;;;;;;;20.92;14.20;;;;;;;7.93;86.32;96783.97;5092098;28;20054;-73
2023/05/04 05:07:46;;;;;;;22.60;14.73;;;;;;;7.79;86.60;96787.38;5091019;27;20055;-73
2023/05/04 05:10:12;;;;;;;20.23;13.43;;;;;;;7.86;86.77;96789.75;5092051;28;20047;-76
2023/05/04 05:12:39;;;;;;;20.00;12.63;;;;;;;8.04;87.04;96791.69;5092693;28;20733;-75
2023/05/04 05:15:07;;;;;;;22.92;13.68;;;;;;;8.03;86.58;96803.63;5092166;28;20495;-76
2023/05/04 05:17:34;;;;;;;22.63;13.63;;;;;;;8.20;86.40;96796.94;5088971;28;20048;-74
2023/05/04 05:20:00;;;;;;;25.20;15.75;;;;;;;8.25;86.23;96791.44;5088295;28;20044;-74
2023/05/04 05:22:28;;;;;;;20.55;13.45;;;;;;;8.27;86.56;96794.66;5087333;28;20036;-74
2023/05/04 05:24:55;;;;;;;21.02;13.40;;;;;;;8.38;85.95;96795.34;5089303;28;20054;-74
2023/05/04 05:27:22;;;;;;;27.33;14.38;;;;;;;8.38;85.38;96790.72;5087570;28;20055;-73
2023/05/04 05:29:48;;;;;;;21.13;14.27;;;;;;;8.42;86.22;96791.75;5089244;27;20081;-72
2023/05/04 05:32:14;;;;;;;25.58;13.30;;;;;;;8.43;85.49;96793.38;5088730;28;20055;-74
2023/05/04 05:34:41;;;;;;;24.45;13.63;;;;;;;8.55;85.06;96796.44;5087788;28;20059;-74
2023/05/04 05:37:08;;;;;;;24.10;13.60;;;;;;;8.72;85.08;96800.53;5088510;28;20052;-73
2023/05/04 05:39:36;;;;;;;26.17;13.70;;;;;;;8.78;84.81;96796.66;5088256;28;20127;-73
2023/05/04 05:42:03;;;;;;;23.65;13.55;;;;;;;8.82;84.97;96797.66;5088461;27;20128;-72
2023/05/04 05:44:29;;;;;;;18.92;12.52;;;;;;;8.92;84.54;96796.69;5088604;28;20056;-72
2023/05/04 05:46:56;;;;;;;24.27;14.07;;;;;;;9.01;84.33;96803.88;5088536;28;20044;-73
2023/05/04 05:49:22;;;;;;;21.52;13.13;;;;;;;9.17;83.93;96798.19;5087588;28;20511;-73
2023/05/04 05:51:49;;;;;;;21.00;12.93;;;;;;;9.23;83.39;96797.00;5088496;28;20534;-72
2023/05/04 05:54:16;;;;;;;24.20;13.75;;;;;;;9.24;83.14;96793.16;5087767;28;20051;-72
2023/05/04 05:56:43;;;;;;;18.30;11.77;;;;;;;9.35;82.52;96797.34;5088131;28;20668;-74
2023/05/04 05:59:10;;;;;;;15.90;11.13;;;;;;;9.52;81.60;96791.34;5088407;28;20052;-74
2023/05/04 06:01:36;;;;;;;19.35;12.23;;;;;;;9.60;82.39;96794.13;5088119;28;20071;-73
2023/05/04 06:04:03;;;;;;;19.80;12.48;;;;;;;9.79;82.42;96795.97;5087892;28;20044;-74
2023/05/04 06:06:29;;;;;;;26.50;12.43;;;;;;;9.75;81.88;96795.75;5088039;28;20416;-72
2023/05/04 06:08:56;;;;;;;25.88;12.70;;;;;;;9.89;81.86;96787.63;5088515;28;20055;-72
2023/05/04 06:11:22;;;;;;;22.33;12.13;;;;;;;9.95;81.18;96786.41;5087780;28;20048;-73
2023/05/04 06:13:50;;;;;;;22.02;12.02;;;;;;;10.00;80.56;96786.31;5088315;28;20059;-73
2023/05/04 06:16:16;;;;;;;19.05;12.13;;;;;;;9.94;80.24;96779.34;5087603;28;20044;-73
2023/05/04 06:18:43;;;;;;;26.90;12.07;;;;;;;10.06;80.64;96779.63;5087846;28;20055;-73
2023/05/04 06:21:09;;;;;;;17.42;12.15;;;;;;;10.05;79.59;96772.59;5087667;28;20058;-73
2023/05/04 06:23:36;;;;;;;19.23;11.95;;;;;;;10.16;79.24;96778.63;5086760;28;20471;-73
2023/05/04 06:26:04;;;;;;;22.50;11.98;;;;;;;10.30;79.44;96779.44;5088141;28;20091;-74
2023/05/04 06:28:31;;;;;;;17.73;11.90;;;;;;;10.25;78.83;96786.91;5088173;28;20047;-73
2023/05/04 06:30:59;;;;;;;21.65;12.05;;;;;;;10.44;78.62;96780.22;5088416;28;20047;-73
2023/05/04 06:33:25;;;;;;;26.88;17.42;;;;;;;10.38;78.24;96780.63;5087867;28;20506;-73
2023/05/04 06:35:52;;;;;;;16.92;11.57;;;;;;;10.45;78.06;96781.03;5088599;28;20048;-73
2023/05/04 06:38:18;;;;;;;19.50;11.48;;;;;;;10.65;78.01;96780.56;5087070;28;20044;-73
2023/05/04 06:40:45;;;;;;;18.98;11.77;;;;;;;10.80;79.22;96787.56;5088193;28;20154;-73
2023/05/04 06:43:11;;;;;;;17.05;11.55;;;;;;;10.94;79.21;96787.50;5094712;28;20052;-75
2023/05/04 06:45:38;;;;;;;17.63;11.05;;;;;;;10.98;77.30;96777.59;5092733;28;20048;-74
2023/05/04 06:48:07;;;;;;;20.23;11.23;;;;;;;11.01;75.87;96787.88;5091591;28;20048;-75
2023/05/04 06:50:35;;;;;;;14.90;11.30;;;;;;;11.08;75.76;96788.25;5093427;28;20438;-73
2023/05/04 06:53:07;;;;;;;16.63;11.13;;;;;;;11.17;75.42;96785.56;5094755;28;20487;-73
2023/05/04 06:55:34;;;;;;;16.38;10.13;;;;;;;11.16;75.08;96790.22;5092486;28;20044;-75
2023/05/04 06:58:00;;;;;;;18.02;11.23;;;;;;;11.07;74.79;96789.38;5087678;28;20078;-72
2023/05/04 07:00:27;;;;;;;16.80;10.32;;;;;;;11.09;75.12;96789.88;5088139;28;20044;-73
2023/05/04 07:02:54;;;;;;;17.40;10.90;;;;;;;11.18;75.42;96793.47;5087419;28;20043;-73
2023/05/04 07:05:22;;;;;;;16.83;10.35;;;;;;;11.30;74.27;96790.16;5089338;28;20403;-73
2023/05/04 07:07:48;;;;;;;15.05;10.48;;;;;;;11.33;74.00;96788.72;5090180;28;20078;-75
2023/05/04 07:10:15;;;;;;;19.73;10.75;;;;;;;11.34;74.17;96795.81;5089834;28;20483;-73
2023/05/04 07:12:42;;;;;;;16.05;10.48;;;;;;;11.45;73.98;96794.41;5090588;28;20048;-75
2023/05/04 07:15:09;;;;;;;13.93;10.32;;;;;;;11.55;73.41;96799.59;5090295;28;20075;-75
2023/05/04 07:17:36;;;;;;;16.55;10.52;;;;;;;11.58;73.81;96801.69;5089546;28;20127;-75
2023/05/04 07:20:04;;;;;;;14.68;10.48;;;;;;;11.59;73.65;96784.22;5089765;28;20077;-76
2023/05/04 07:22:32;;;;;;;18.48;10.60;;;;;;;11.66;72.98;96792.75;5088845;28;20040;-74
2023/05/04 07:24:59;;;;;;;17.63;10.68;;;;;;;11.80;74.22;96795.41;5090750;28;20046;-73
2023/05/04 07:27:25;;;;;;;13.65;9.77;;;;;;;11.95;72.07;96784.09;5090743;28;20635;-74
2023/05/04 07:29:52;;;;;;;15.10;9.68;;;;;;;12.14;71.99;96781.06;5090392;28;20044;-74
2023/05/04 07:32:18;;;;;;;14.65;9.88;;;;;;;12.33;71.15;96777.28;5089879;28;20048;-74
2023/05/04 07:34:45;;;;;;;16.92;9.23;;;;;;;12.47;70.10;96784.19;5089444;28;20036;-73
2023/05/04 07:37:12;;;;;;;12.70;9.40;;;;;;;12.71;69.99;96767.34;5089514;28;20606;-73
2023/05/04 07:39:40;;;;;;;13.38;9.02;;;;;;;12.65;68.85;96768.63;5090181;28;20054;-73
2023/05/04 07:42:07;;;;;;;14.10;9.25;;;;;;;12.75;68.16;96768.31;5089685;28;20132;-73
2023/05/04 07:44:34;;;;;;;14.38;9.88;;;;;;;12.98;67.35;96766.19;5090327;28;20055;-74
2023/05/04 07:47:01;;;;;;;11.70;8.68;;;;;;;13.20;65.26;96767.91;5088986;28;20044;-75
2023/05/04 07:49:27;;;;;;;14.35;8.95;;;;;;;13.69;64.26;96763.00;5090313;28;20060;-73
2023/05/04 07:51:54;;;;;;;11.88;8.05;;;;;;;14.74;61.11;96761.28;5090974;28;20044;-73
2023/05/04 07:54:20;;;;;;;10.65;7.55;;;;;;;15.40;57.12;96764.06;5090994;28;20047;-73
2023/05/04 07:56:48;;;;;;;10.57;7.45;;;;;;;16.30;55.54;96762.34;5092131;28;20056;-73
2023/05/04 07:59:17;;;;;;;10.32;7.28;;;;;;;16.57;54.83;96765.50;5091005;28;20384;-73
2023/05/04 08:01:45;;;;;;;12.18;8.10;;;;;;;16.73;52.96;96769.16;5094256;28;20043;-74
2023/05/04 08:04:11;;;;;;;18.40;7.60;;;;;;;17.31;52.43;96758.63;5093758;28;20082;-73
2023/05/04 08:06:38;;;;;;;12.40;7.25;;;;;;;17.30;52.29;96759.00;5093896;28;20051;-73
2023/05/04 08:09:05;;;;;;;8.65;6.82;;;;;;;17.81;49.23;96761.94;5094700;28;20048;-72
2023/05/04 08:11:33;;;;;;;11.93;6.22;;;;;;;17.70;49.55;96764.41;5094317;28;20102;-73
2023/05/04 08:14:01;;;;;;;9.73;7.03;;;;;;;17.95;49.63;96757.56;5094114;28;20143;-73
2023/05/04 08:16:28;;;;;;;9.25;6.68;;;;;;;18.17;49.17;96766.38;5090644;28;20047;-73
2023/05/04 08:18:55;;;;;;;10.18;6.75;;;;;;;18.22;49.27;96750.38;5090283;28;20051;-74
2023/05/04 08:21:21;;;;;;;10.90;6.85;;;;;;;18.24;47.78;96759.06;5090016;28;20127;-75
2023/05/04 08:23:48;;;;;;;14.05;7.60;;;;;;;18.64;46.75;96759.97;5089516;28;20119;-75
2023/05/04 08:26:15;;;;;;;11.77;8.10;;;;;;;18.83;46.50;96771.06;5089217;28;20406;-75
2023/05/04 08:28:41;;;;;;;11.38;7.78;;;;;;;19.20;46.35;96765.91;5089349;28;20052;-73
2023/05/04 08:31:09;;;;;;;12.90;7.30;;;;;;;19.52;45.12;96761.03;5089357;28;20071;-75
2023/05/04 08:33:36;;;;;;;12.40;7.78;;;;;;;19.67;46.43;96770.38;5089211;28;20044;-74
2023/05/04 08:36:03;;;;;;;10.30;7.50;;;;;;;19.15;46.36;96770.94;5088978;28;20040;-74
2023/05/04 08:38:29;;;;;;;8.48;6.80;;;;;;;19.30;45.13;96757.03;5089153;28;20051;-74
2023/05/04 08:40:56;;;;;;;10.60;7.53;;;;;;;19.19;47.95;96755.25;5089259;28;20048;-73
2023/05/04 08:43:23;;;;;;;12.80;7.57;;;;;;;18.59;49.90;96757.50;5088368;28;20097;-74
2023/05/04 08:45:49;;;;;;;11.80;7.55;;;;;;;18.33;49.34;96756.13;5091504;28;20040;-73
2023/05/04 08:48:18;;;;;;;11.50;7.68;;;;;;;18.10;48.52;96758.72;5092791;28;20062;-73
2023/05/04 08:50:45;;;;;;;11.07;8.38;;;;;;;18.00;50.95;96749.03;5092934;28;20048;-73
2023/05/04 08:53:13;;;;;;;10.70;7.32;;;;;;;18.00;49.34;96757.31;5092422;28;20086;-73
2023/05/04 08:55:42;;;;;;;10.50;8.00;;;;;;;18.09;50.60;96757.13;5092704;28;20113;-73
2023/05/04 08:58:11;;;;;;;13.30;8.73;;;;;;;17.95;51.91;96751.25;5092219;28;20055;-74
2023/05/04 09:00:38;;;;;;;10.40;7.45;;;;;;;17.97;52.71;96747.00;5092752;28;20047;-73
2023/05/04 09:03:06;;;;;;;9.20;7.03;;;;;;;18.11;50.23;96754.00;5091982;28;20407;-73
2023/05/04 09:05:34;;;;;;;10.60;7.82;;;;;;;18.10;53.96;96749.66;5092545;28;20048;-74
2023/05/04 09:08:01;;;;;;;11.98;7.93;;;;;;;18.04;50.44;96748.34;5092798;28;20043;-73
2023/05/04 09:10:27;;;;;;;13.38;7.85;;;;;;;18.03;51.71;96752.25;5092151;28;20040;-73
2023/05/04 09:12:54;;;;;;;10.30;7.65;;;;;;;18.15;50.64;96750.19;5092417;28;20056;-73
2023/05/04 09:15:22;;;;;;;10.90;7.55;;;;;;;18.15;49.85;96749.38;5090072;28;20469;-73
2023/05/04 09:18:03;;;;;;;17.48;8.05;;;;;;;18.12;47.87;96755.63;5092432;28;20051;-73
2023/05/04 09:20:30;;;;;;;10.27;7.90;;;;;;;18.11;49.40;96754.00;5092300;28;20123;-72
2023/05/04 09:23:06;;;;;;;15.90;8.05;;;;;;;18.25;46.73;96754.34;5092454;28;20499;-75
2023/05/04 09:25:33;;;;;;;9.95;6.85;;;;;;;18.14;46.48;96753.31;5092244;28;20081;-74
2023/05/04 09:28:00;;;;;;;12.25;7.68;;;;;;;17.91;47.72;96744.88;5092484;28;20052;-73
2023/05/04 09:30:26;;;;;;;12.48;8.75;;;;;;;17.89;47.75;96755.44;5091532;28;20040;-73
2023/05/04 09:32:54;;;;;;;11.05;7.20;;;;;;;18.06;48.44;96751.53;5092249;28;20066;-73
2023/05/04 09:35:28;;;;;;;51.72;16.58;;;;;;;18.21;49.16;96758.97;5091702;28;20599;-72
2023/05/04 09:37:55;;;;;;;12.60;8.20;;;;;;;18.15;50.75;96749.38;5091897;28;20461;-73
2023/05/04 09:40:31;;;;;;;115.35;29.67;;;;;;;18.42;50.59;96745.69;5091631;28;20056;-73
2023/05/04 09:42:59;;;;;;;12.93;7.93;;;;;;;18.37;46.30;96742.41;5091939;28;20055;-73
2023/05/04 09:45:27;;;;;;;12.50;7.70;;;;;;;18.69;47.22;96740.44;5091337;28;20050;-73
2023/05/04 09:47:54;;;;;;;9.43;6.97;;;;;;;18.49;46.43;96734.84;5091735;28;20040;-73
2023/05/04 09:50:24;;;;;;;11.27;7.15;;;;;;;18.83;47.13;96737.16;5091523;28;20079;-73
2023/05/04 09:52:50;;;;;;;12.40;7.95;;;;;;;18.94;45.87;96741.72;5091662;28;20043;-73
2023/05/04 09:55:18;;;;;;;12.25;7.10;;;;;;;19.21;47.31;96733.56;5091485;28;20398;-73
2023/05/04 09:57:49;;;;;;;11.80;7.93;;;;;;;19.11;47.28;96740.50;5090950;28;20044;-75
2023/05/04 10:00:17;;;;;;;12.75;8.70;;;;;;;19.05;45.25;96739.19;5091704;28;20083;-74
2023/05/04 10:02:45;;;;;;;9.35;7.18;;;;;;;19.06;48.45;96727.00;5091356;28;20051;-74
2023/05/04 10:05:15;;;;;;;10.05;7.22;;;;;;;19.01;45.44;96717.06;5091394;28;20044;-74
2023/05/04 10:07:42;;;;;;;10.50;7.55;;;;;;;18.99;48.63;96722.13;5091684;28;20044;-73
2023/05/04 10:10:11;;;;;;;13.82;7.22;;;;;;;19.16;44.82;96718.13;5091201;28;20051;-73
2023/05/04 10:12:37;;;;;;;10.68;7.45;;;;;;;19.02;49.04;96715.88;5091034;28;20040;-73
2023/05/04 10:15:08;;;;;;;87.28;19.42;;;;;;;18.99;47.04;96716.59;5090935;28;20062;-73
2023/05/04 10:17:47;;;;;;;9.38;7.15;;;;;;;19.19;45.87;96711.88;5088831;28;20040;-73
2023/05/04 10:20:29;;;;;;;38.67;10.95;;;;;;;19.31;46.61;96708.13;5094142;28;20135;-72
2023/05/04 10:23:16;;;;;;;11.67;7.80;;;;;;;19.23;45.45;96704.47;5093449;28;20044;-73
2023/05/04 10:26:02;;;;;;;12.85;7.70;;;;;;;19.10;46.75;96700.25;5093008;28;20101;-74
2023/05/04 10:28:37;;;;;;;12.98;7.93;;;;;;;19.28;50.89;96700.59;5092050;28;20040;-73
2023/05/04 10:31:06;;;;;;;12.02;7.50;;;;;;;19.31;46.32;96708.13;5091708;28;20043;-73
2023/05/04 10:33:39;;;;;;;11.95;7.32;;;;;;;19.46;46.16;96707.22;5091865;28;20046;-73
2023/05/04 10:36:06;;;;;;;10.43;7.28;;;;;;;19.41;44.88;96702.00;5091646;28;20101;-73
2023/05/04 10:38:34;;;;;;;14.57;7.15;;;;;;;19.65;45.21;96697.34;5091864;28;20052;-73
2023/05/04 10:41:00;;;;;;;10.32;7.80;;;;;;;19.69;44.92;96692.69;5091418;28;20157;-73
2023/05/04 10:43:28;;;;;;;15.68;7.50;;;;;;;19.42;42.22;96694.53;5090639;28;20506;-74
2023/05/04 10:45:56;;;;;;;10.77;7.32;;;;;;;19.42;45.71;96697.28;5082827;28;20036;-73
2023/05/04 10:48:33;;;;;;;11.70;7.47;;;;;;;19.14;42.69;96689.28;5089958;28;20510;-73
2023/05/04 10:51:00;;;;;;;12.63;7.32;;;;;;;19.45;44.66;96682.75;5090543;28;20059;-74
2023/05/04 10:53:32;;;;;;;13.80;7.68;;;;;;;19.72;45.30;96680.88;5090227;28;20055;-73
2023/05/04 10:55:59;;;;;;;10.25;7.25;;;;;;;19.70;44.65;96684.00;5090666;28;20063;-73
2023/05/04 10:58:29;;;;;;;12.07;7.82;;;;;;;19.41;43.69;96677.16;5090014;28;20407;-73
2023/05/04 11:00:55;;;;;;;11.82;7.40;;;;;;;19.76;45.24;96674.25;5090605;28;20070;-73
2023/05/04 11:03:23;;;;;;;9.45;6.95;;;;;;;19.77;42.25;96675.84;5090048;28;20056;-73
2023/05/04 11:05:53;;;;;;;12.00;7.47;;;;;;;19.79;41.58;96669.97;5090537;28;20048;-73
2023/05/04 11:08:21;;;;;;;21.80;7.97;;;;;;;20.03;42.32;96669.53;5089415;28;20480;-73
2023/05/04 11:10:48;;;;;;;12.65;5.78;;;;;;;19.93;38.77;96675.69;5090194;28;20040;-73
2023/05/04 11:13:15;;;;;;;43.88;9.60;;;;;;;19.79;41.87;96676.28;5089560;28;20036;-72
2023/05/04 11:15:50;;;;;;;129.85;15.07;;;;;;;19.96;43.40;96674.97;5090164;28;20071;-73
2023/05/04 11:18:26;;;;;;;11.77;7.43;;;;;;;19.90;42.87;96665.41;5088435;28;20036;-73
2023/05/04 11:20:54;;;;;;;10.75;7.32;;;;;;;19.85;41.21;96668.47;5090267;28;20071;-72
2023/05/04 11:23:21;;;;;;;31.35;7.20;;;;;;;20.06;41.37;96657.75;5089492;28;20531;-73
2023/05/04 11:25:47;;;;;;;7.85;5.97;;;;;;;19.98;42.36;96672.59;5090181;28;20040;-73